Terminal Aerodrome Forecast
Issued by NWS Cleveland, OH

Home | Current Version | Previous Version | Graphics & Text | Print | Product List | Glossary On
Versions: 1 2 3 4 5 6 7 8 9 10 11 12 13 14 15 16 17 18 19 20
000
FTUS41 KCLE 210900 AAB
TAFTOL
TAF AMD
KTOL 210900Z 2109/2206 29008KT 6SM -RA SCT030 OVC050
      TEMPO 2109/2111 4SM -RA BR BKN009 OVC050
     FM211100 30010KT 3SM -RA BR BKN009 OVC025
     FM211500 32012KT P6SM VCSH OVC015
     FM211900 36010KT P6SM OVC035
     FM220000 05006KT P6SM SCT040 OVC200=

USA.gov is the U.S. government's official web portal to all federal, state and local government web resources and services.